createdAt,value
2024-05-09T00:01:54.602Z,25.10
2024-05-09T00:04:25.198Z,26.60
2024-05-09T00:06:56.253Z,22.30
2024-05-09T00:09:29.367Z,25.27
2024-05-09T00:12:00.481Z,21.93
2024-05-09T00:14:31.176Z,21.50
2024-05-09T00:17:02.259Z,23.33
2024-05-09T00:19:33.872Z,19.10
2024-05-09T00:22:04.997Z,19.33
2024-05-09T00:24:38.184Z,35.67
2024-05-09T00:27:11.242Z,24.83
2024-05-09T00:29:43.210Z,23.83
2024-05-09T00:32:14.194Z,27.37
2024-05-09T00:34:44.805Z,16.13
2024-05-09T00:37:16.399Z,19.27
2024-05-09T00:39:49.597Z,21.77
2024-05-09T00:42:20.460Z,20.93
2024-05-09T00:44:51.819Z,22.63
2024-05-09T00:47:24.111Z,21.70
2024-05-09T00:49:54.877Z,22.93
2024-05-09T00:52:25.886Z,20.57
2024-05-09T00:55:00.375Z,19.13
2024-05-09T00:57:31.457Z,20.00
2024-05-09T01:00:04.722Z,17.33
2024-05-09T01:02:37.125Z,22.70
2024-05-09T01:05:08.410Z,22.87
2024-05-09T01:07:39.531Z,20.23
2024-05-09T01:10:17.435Z,24.37
2024-05-09T01:12:54.761Z,20.93
2024-05-09T01:15:25.232Z,20.63
2024-05-09T01:17:57.105Z,20.53
2024-05-09T01:20:39.016Z,19.40
2024-05-09T01:23:16.841Z,19.77
2024-05-09T01:25:47.555Z,18.67
2024-05-09T01:28:18.786Z,18.43
2024-05-09T01:30:49.379Z,19.53
2024-05-09T01:33:20.634Z,17.60
2024-05-09T01:35:51.257Z,15.10
2024-05-09T01:38:24.849Z,21.00
2024-05-09T01:40:55.480Z,15.43
2024-05-09T01:43:26.398Z,20.67
2024-05-09T01:45:56.893Z,18.83
2024-05-09T01:48:27.829Z,23.00
2024-05-09T01:50:58.484Z,20.23
2024-05-09T01:53:32.240Z,17.80
2024-05-09T01:56:02.928Z,13.63
2024-05-09T01:58:34.357Z,18.07
2024-05-09T02:01:05.261Z,17.37
2024-05-09T02:03:36.355Z,17.37
2024-05-09T02:06:07.391Z,18.90
2024-05-09T02:08:41.016Z,21.97
2024-05-09T02:11:11.722Z,16.97
2024-05-09T02:13:44.422Z,19.43
2024-05-09T02:16:15.160Z,23.90
2024-05-09T02:18:46.236Z,20.03
2024-05-09T02:21:16.847Z,17.53
2024-05-09T02:23:50.402Z,15.67
2024-05-09T02:26:21.234Z,18.83
2024-05-09T02:28:52.208Z,20.00
2024-05-09T02:31:22.769Z,14.73
2024-05-09T02:33:53.966Z,20.53
2024-05-09T02:36:25.192Z,20.47
2024-05-09T02:38:56.134Z,15.93
2024-05-09T02:41:27.102Z,23.03
2024-05-09T02:43:55.490Z,20.07
2024-05-09T02:46:25.961Z,17.80
2024-05-09T02:48:54.336Z,20.40
2024-05-09T02:51:25.002Z,23.77
2024-05-09T02:53:55.891Z,20.57
2024-05-09T02:56:26.558Z,17.83
2024-05-09T02:58:56.770Z,19.10
2024-05-09T03:01:27.550Z,21.80
2024-05-09T03:03:56.033Z,19.23
2024-05-09T03:06:26.681Z,21.73
2024-05-09T03:08:57.648Z,19.43
2024-05-09T03:11:28.792Z,22.93
2024-05-09T03:13:57.271Z,20.80
2024-05-09T03:16:27.801Z,19.00
2024-05-09T03:18:56.273Z,17.27
2024-05-09T03:21:26.779Z,16.53
2024-05-09T03:23:57.669Z,19.33
2024-05-09T03:26:28.272Z,16.13
2024-05-09T03:28:56.664Z,18.60
2024-05-09T03:31:27.191Z,33.97
2024-05-09T03:33:55.552Z,94.27
2024-05-09T03:36:26.142Z,57.17
2024-05-09T03:38:59.721Z,31.53
2024-05-09T03:41:31.878Z,26.67
2024-05-09T03:44:02.868Z,16.40
2024-05-09T03:46:30.804Z,22.73
2024-05-09T03:49:02.387Z,20.43
2024-05-09T03:51:30.372Z,21.60
2024-05-09T03:54:03.893Z,17.43
2024-05-09T03:56:31.966Z,59.73
2024-05-09T03:59:03.047Z,69.30
2024-05-09T04:01:31.120Z,38.63
2024-05-09T04:04:02.284Z,29.73
2024-05-09T04:06:32.836Z,22.47
2024-05-09T04:09:05.115Z,24.23
2024-05-09T04:11:35.895Z,20.43
2024-05-09T04:14:04.304Z,64.10
2024-05-09T04:16:34.783Z,52.23
2024-05-09T04:19:03.112Z,45.93
2024-05-09T04:21:33.628Z,24.73
2024-05-09T04:24:04.835Z,21.83
2024-05-09T04:26:35.507Z,23.20
2024-05-09T04:29:05.581Z,21.53
2024-05-09T04:31:39.700Z,17.83
2024-05-09T04:34:08.087Z,18.80
2024-05-09T04:36:41.638Z,21.07
2024-05-09T04:39:13.440Z,22.17
2024-05-09T04:41:43.964Z,18.27
2024-05-09T04:44:12.487Z,21.67
2024-05-09T04:46:43.023Z,17.07
2024-05-09T04:49:11.517Z,18.43
2024-05-09T04:51:42.074Z,23.03
2024-05-09T04:54:25.795Z,17.73
2024-05-09T04:57:00.969Z,19.80
2024-05-09T04:59:29.498Z,15.03
2024-05-09T05:02:00.180Z,15.33
2024-05-09T05:04:28.699Z,15.67
2024-05-09T05:07:02.541Z,12.43
2024-05-09T05:09:34.065Z,14.20
2024-05-09T05:12:24.712Z,14.97
2024-05-09T05:14:53.202Z,21.13
2024-05-09T05:17:23.863Z,18.47
2024-05-09T05:19:52.367Z,30.50
2024-05-09T05:22:23.055Z,17.77
2024-05-09T05:24:54.047Z,19.57
2024-05-09T05:27:24.606Z,17.93
2024-05-09T05:29:53.007Z,19.57
2024-05-09T05:32:23.707Z,22.43
2024-05-09T05:34:52.255Z,15.47
2024-05-09T05:37:22.851Z,23.17
2024-05-09T05:39:53.808Z,33.10
2024-05-09T05:42:25.171Z,22.37
2024-05-09T05:44:53.931Z,24.47
2024-05-09T05:47:24.994Z,28.13
2024-05-09T05:49:53.488Z,25.87
2024-05-09T05:52:25.446Z,27.17
2024-05-09T05:54:56.428Z,25.53
2024-05-09T05:57:27.018Z,18.30
2024-05-09T05:59:55.317Z,27.83
2024-05-09T06:02:25.955Z,16.23
2024-05-09T06:04:54.497Z,18.80
2024-05-09T06:07:24.999Z,29.47
2024-05-09T06:09:56.191Z,20.40
2024-05-09T06:12:26.903Z,28.60
2024-05-09T06:14:55.280Z,28.73
2024-05-09T06:17:26.069Z,25.47
2024-05-09T06:19:54.558Z,28.33
2024-05-09T06:22:25.170Z,34.60
2024-05-09T06:24:57.090Z,23.63
2024-05-09T06:27:27.835Z,27.50
2024-05-09T06:29:56.090Z,31.27
2024-05-09T06:32:26.726Z,27.40
2024-05-09T06:34:55.950Z,15.93
2024-05-09T06:37:26.519Z,28.40
2024-05-09T06:39:57.514Z,20.73
2024-05-09T06:42:28.062Z,21.03
2024-05-09T06:44:56.562Z,21.07
2024-05-09T06:47:27.240Z,21.93
2024-05-09T06:49:55.716Z,21.70
2024-05-09T06:52:26.282Z,21.40
2024-05-09T06:54:57.210Z,25.43
2024-05-09T06:57:29.740Z,22.37
2024-05-09T07:00:00.685Z,23.10
2024-05-09T07:02:32.089Z,22.47
2024-05-09T07:05:00.687Z,25.60
2024-05-09T07:07:31.382Z,21.53
2024-05-09T07:10:02.401Z,24.60
2024-05-09T07:12:33.181Z,26.13
2024-05-09T07:15:01.586Z,28.10
2024-05-09T07:17:32.308Z,23.50
2024-05-09T07:20:00.833Z,19.43
2024-05-09T07:22:31.406Z,18.13
2024-05-09T07:25:02.331Z,21.30
2024-05-09T07:27:32.944Z,23.63
2024-05-09T07:30:01.499Z,16.73
2024-05-09T07:32:32.513Z,26.00
2024-05-09T07:35:00.855Z,26.23
2024-05-09T07:37:31.422Z,21.07
2024-05-09T07:40:05.838Z,27.80
2024-05-09T07:42:37.878Z,19.33
2024-05-09T07:45:24.228Z,19.87
2024-05-09T07:49:44.267Z,20.63
2024-05-09T07:53:38.356Z,22.23
2024-05-09T07:56:11.401Z,20.53
2024-05-09T07:58:42.666Z,16.57
2024-05-09T08:01:11.247Z,18.73
2024-05-09T08:03:42.090Z,21.13
2024-05-09T08:06:10.752Z,14.97
2024-05-09T08:08:41.282Z,22.33
2024-05-09T08:11:12.300Z,27.53
2024-05-09T08:13:42.921Z,20.47
2024-05-09T08:16:11.308Z,29.30
2024-05-09T08:18:42.372Z,30.03
2024-05-09T08:21:10.888Z,18.90
2024-05-09T08:23:41.410Z,18.30
2024-05-09T08:26:12.529Z,26.37
2024-05-09T08:28:43.079Z,25.50
2024-05-09T08:31:11.700Z,19.67
2024-05-09T08:33:47.656Z,42.60
2024-05-09T08:36:16.951Z,22.40
2024-05-09T08:38:47.516Z,22.37
2024-05-09T08:41:18.560Z,24.10
2024-05-09T08:43:49.960Z,23.50
2024-05-09T08:46:19.095Z,21.57
2024-05-09T08:48:52.720Z,17.00
2024-05-09T08:51:21.257Z,22.17
2024-05-09T08:53:51.806Z,16.80
2024-05-09T08:56:28.086Z,26.08
2024-05-09T08:59:03.728Z,26.70
2024-05-09T09:01:34.324Z,25.08
2024-05-09T09:04:07.166Z,19.20
2024-05-09T09:06:36.580Z,16.30
2024-05-09T09:09:07.312Z,19.92
2024-05-09T09:11:38.269Z,20.00
2024-05-09T09:14:08.899Z,17.48
2024-05-09T09:16:37.683Z,14.45
2024-05-09T09:19:08.335Z,15.50
2024-05-09T09:21:36.743Z,19.20
2024-05-09T09:24:09.937Z,17.23
2024-05-09T09:26:41.762Z,22.88
2024-05-09T09:29:12.236Z,19.52
2024-05-09T09:31:42.180Z,20.27
2024-05-09T09:34:13.074Z,22.73
2024-05-09T09:36:44.429Z,16.13
2024-05-09T09:39:20.058Z,17.23
2024-05-09T09:41:51.944Z,18.75
2024-05-09T09:44:25.079Z,18.13
2024-05-09T09:46:56.756Z,16.63
2024-05-09T09:49:27.905Z,14.25
2024-05-09T09:51:56.646Z,19.15
2024-05-09T09:54:27.833Z,17.67
2024-05-09T09:56:58.982Z,15.85
2024-05-09T09:59:31.035Z,15.02
2024-05-09T10:01:59.459Z,17.65
2024-05-09T10:04:30.381Z,18.08
2024-05-09T10:07:03.496Z,15.85
2024-05-09T10:09:35.808Z,13.13
2024-05-09T10:12:13.783Z,18.15
2024-05-09T10:14:49.324Z,10.82
2024-05-09T10:17:18.194Z,14.77
2024-05-09T10:19:48.950Z,20.20
2024-05-09T10:22:27.781Z,13.98
2024-05-09T10:25:06.496Z,13.50
2024-05-09T10:27:37.523Z,13.35
2024-05-09T10:30:14.658Z,9.48
2024-05-09T10:32:56.278Z,13.73
2024-05-09T10:35:26.712Z,17.77
2024-05-09T10:37:58.636Z,16.08
2024-05-09T10:40:31.349Z,9.05
2024-05-09T10:43:07.930Z,16.98
2024-05-09T10:45:36.207Z,10.90
2024-05-09T10:48:07.681Z,14.35
2024-05-09T10:50:36.136Z,10.38
2024-05-09T10:53:07.252Z,14.48
2024-05-09T10:55:35.134Z,15.85
2024-05-09T10:58:18.950Z,13.43
2024-05-09T11:00:46.977Z,11.60
2024-05-09T11:03:18.490Z,12.18
2024-05-09T11:05:47.527Z,10.57
2024-05-09T11:08:19.025Z,9.77
2024-05-09T11:10:47.730Z,8.05
2024-05-09T11:13:29.821Z,7.72
2024-05-09T11:15:57.959Z,10.63
2024-05-09T11:18:35.284Z,7.07
2024-05-09T11:21:13.382Z,10.30
2024-05-09T11:23:44.964Z,18.17
2024-05-09T11:26:15.286Z,6.45
2024-05-09T11:28:50.775Z,6.65
2024-05-09T11:31:19.174Z,10.07
2024-05-09T11:33:50.535Z,9.40
2024-05-09T11:36:18.545Z,6.85
2024-05-09T11:38:49.653Z,9.70
2024-05-09T11:41:18.587Z,8.15
2024-05-09T11:43:52.359Z,9.30
2024-05-09T11:46:20.386Z,10.00
2024-05-09T11:48:51.523Z,8.55
2024-05-09T11:51:19.523Z,7.25
2024-05-09T11:53:50.406Z,9.63
2024-05-09T11:56:18.402Z,13.15
2024-05-09T11:58:51.904Z,18.27
2024-05-09T12:01:20.120Z,15.43
2024-05-09T12:03:54.142Z,8.52
2024-05-09T12:06:22.285Z,7.68
2024-05-09T12:08:53.294Z,4.82
2024-05-09T12:11:22.394Z,10.82
2024-05-09T12:13:56.123Z,9.05
2024-05-09T12:16:24.573Z,9.15
2024-05-09T12:18:55.879Z,13.90
2024-05-09T12:21:23.902Z,11.38
2024-05-09T12:23:54.900Z,13.32
2024-05-09T12:26:22.963Z,12.90
2024-05-09T12:28:56.786Z,12.38
2024-05-09T12:31:24.880Z,11.07
2024-05-09T12:33:56.029Z,7.72
2024-05-09T12:36:24.052Z,8.15
2024-05-09T12:38:54.919Z,8.27
2024-05-09T12:41:22.903Z,10.18
2024-05-09T12:43:56.428Z,12.57
2024-05-09T12:46:24.871Z,11.35
2024-05-09T12:48:56.672Z,13.35
2024-05-09T12:51:25.102Z,6.72
2024-05-09T12:53:56.597Z,12.25
2024-05-09T12:56:25.182Z,8.48
2024-05-09T12:58:59.397Z,7.93
2024-05-09T13:01:27.911Z,6.07
2024-05-09T13:03:59.629Z,8.05
2024-05-09T13:06:28.468Z,6.82
2024-05-09T13:08:59.774Z,9.65
2024-05-09T13:11:28.178Z,12.88
2024-05-09T13:14:02.265Z,10.55
2024-05-09T13:16:30.634Z,6.10
2024-05-09T13:19:02.122Z,10.38
2024-05-09T13:21:30.504Z,7.90
2024-05-09T13:24:01.921Z,7.57
2024-05-09T13:26:30.453Z,12.55
2024-05-09T13:29:04.572Z,8.15
2024-05-09T13:31:33.048Z,5.63
2024-05-09T13:34:04.807Z,8.48
2024-05-09T13:36:33.256Z,12.40
2024-05-09T13:39:04.684Z,5.97
2024-05-09T13:41:33.012Z,6.40
2024-05-09T13:44:07.083Z,9.77
2024-05-09T13:46:35.507Z,7.65
2024-05-09T13:49:10.786Z,10.23
2024-05-09T13:51:40.539Z,6.75
2024-05-09T13:54:11.951Z,6.78
2024-05-09T13:56:40.232Z,5.95
2024-05-09T13:59:14.193Z,14.05
2024-05-09T14:01:42.602Z,8.68
2024-05-09T14:04:14.699Z,6.75
2024-05-09T14:06:43.378Z,10.63
2024-05-09T14:09:14.718Z,10.13
2024-05-09T14:11:43.323Z,16.35
2024-05-09T14:14:17.527Z,15.52
2024-05-09T14:16:46.098Z,13.88
2024-05-09T14:19:17.869Z,10.20
2024-05-09T14:21:46.379Z,7.90
2024-05-09T14:24:17.684Z,10.93
2024-05-09T14:26:45.958Z,9.98
2024-05-09T14:29:19.969Z,9.23
2024-05-09T14:31:48.203Z,6.82
2024-05-09T14:34:19.982Z,7.15
2024-05-09T14:36:48.749Z,11.15
2024-05-09T14:39:20.138Z,8.45
2024-05-09T14:41:48.415Z,10.27
2024-05-09T14:44:22.595Z,11.38
2024-05-09T14:46:51.025Z,8.93
2024-05-09T14:49:22.392Z,13.40
2024-05-09T14:51:51.707Z,19.23
2024-05-09T14:54:22.956Z,18.75
2024-05-09T14:56:52.406Z,10.63
2024-05-09T14:59:26.463Z,13.85
2024-05-09T15:01:54.768Z,14.25
2024-05-09T15:04:27.090Z,10.30
2024-05-09T15:06:56.725Z,13.05
2024-05-09T15:09:28.016Z,15.88
2024-05-09T15:11:56.552Z,9.20
2024-05-09T15:14:30.509Z,21.98
2024-05-09T15:16:58.990Z,231.50
2024-05-09T15:19:31.109Z,155.43
2024-05-09T15:21:59.876Z,141.73
2024-05-09T15:24:33.437Z,135.23
2024-05-09T15:27:02.045Z,136.10
2024-05-09T15:29:36.346Z,127.17
2024-05-09T15:32:05.104Z,140.27
2024-05-09T15:34:36.684Z,135.13
2024-05-09T15:37:05.483Z,137.37
2024-05-09T15:39:37.147Z,138.40
2024-05-09T15:42:05.918Z,134.30
2024-05-09T15:44:40.282Z,140.33
2024-05-09T15:47:08.742Z,16.15
2024-05-09T15:49:40.180Z,22.20
2024-05-09T15:52:08.795Z,24.92
2024-05-09T15:54:40.236Z,22.77
2024-05-09T15:57:08.986Z,20.35
2024-05-09T15:59:42.792Z,11.73
2024-05-09T16:02:11.741Z,10.13
2024-05-09T16:04:42.938Z,15.82
2024-05-09T16:07:11.353Z,10.57
2024-05-09T16:09:42.356Z,11.70
2024-05-09T16:12:10.303Z,12.13
2024-05-09T16:14:45.283Z,7.78
2024-05-09T16:17:13.978Z,10.82
2024-05-09T16:19:44.943Z,8.32
2024-05-09T16:22:12.867Z,5.97
2024-05-09T16:24:43.861Z,7.85
2024-05-09T16:27:12.155Z,5.47
2024-05-09T16:29:46.887Z,5.45
2024-05-09T16:32:14.926Z,5.75
2024-05-09T16:34:45.924Z,5.38
2024-05-09T16:37:14.046Z,5.93
2024-05-09T16:39:45.007Z,15.52
2024-05-09T16:42:12.983Z,7.15
2024-05-09T16:44:46.482Z,7.90
2024-05-09T16:47:14.432Z,5.40
2024-05-09T16:49:45.354Z,56.90
2024-05-09T16:52:13.431Z,57.50
2024-05-09T16:54:44.471Z,49.88
2024-05-09T16:57:12.364Z,49.55
2024-05-09T16:59:45.937Z,18.58
2024-05-09T17:02:14.142Z,24.55
2024-05-09T17:04:45.432Z,11.50
2024-05-09T17:07:13.624Z,11.82
2024-05-09T17:09:45.244Z,9.15
2024-05-09T17:12:15.874Z,7.00
2024-05-09T17:14:49.417Z,6.07
2024-05-09T17:17:20.442Z,8.73
2024-05-09T17:19:51.679Z,7.60
2024-05-09T17:22:20.160Z,6.68
2024-05-09T17:24:51.135Z,6.68
2024-05-09T17:27:19.192Z,19.45
2024-05-09T17:29:52.731Z,17.38
2024-05-09T17:32:20.702Z,24.80
2024-05-09T17:34:51.617Z,21.95
2024-05-09T17:37:19.863Z,13.93
2024-05-09T17:39:50.783Z,21.73
2024-05-09T17:42:18.727Z,41.83
2024-05-09T17:44:52.213Z,13.65
2024-05-09T17:47:20.421Z,11.13
2024-05-09T17:49:51.483Z,11.35
2024-05-09T17:52:19.607Z,20.45
2024-05-09T17:54:50.584Z,17.08
2024-05-09T17:57:18.571Z,14.25
2024-05-09T17:59:49.915Z,10.02
2024-05-09T18:02:20.745Z,9.88
2024-05-09T18:04:51.971Z,8.75
2024-05-09T18:07:19.984Z,9.18
2024-05-09T18:09:50.873Z,11.23
2024-05-09T18:12:18.824Z,14.38
2024-05-09T18:14:49.665Z,18.33
2024-05-09T18:17:22.308Z,13.15
2024-05-09T18:19:54.722Z,13.75
2024-05-09T18:22:23.676Z,12.48
2024-05-09T18:24:54.655Z,8.02
2024-05-09T18:27:23.505Z,14.73
2024-05-09T18:29:54.610Z,11.57
2024-05-09T18:32:25.197Z,13.27
2024-05-09T18:34:56.171Z,10.95
2024-05-09T18:37:24.442Z,13.75
2024-05-09T18:39:55.486Z,12.35
2024-05-09T18:42:23.432Z,12.88
2024-05-09T18:44:54.455Z,14.27
2024-05-09T18:47:25.114Z,15.35
2024-05-09T18:49:56.215Z,17.60
2024-05-09T18:52:24.520Z,53.97
2024-05-09T18:54:55.488Z,53.72
2024-05-09T18:57:23.373Z,32.85
2024-05-09T18:59:54.220Z,32.78
2024-05-09T19:02:24.985Z,27.02
2024-05-09T19:04:56.057Z,23.60
2024-05-09T19:07:24.158Z,24.92
2024-05-09T19:09:55.099Z,33.97
2024-05-09T19:12:23.019Z,30.98
2024-05-09T19:14:53.874Z,25.60
2024-05-09T19:17:21.917Z,30.52
2024-05-09T19:19:56.647Z,32.22
2024-05-09T19:22:24.655Z,32.72
2024-05-09T19:24:55.660Z,27.25
2024-05-09T19:27:24.364Z,22.38
2024-05-09T19:29:57.194Z,20.65
2024-05-09T19:32:25.970Z,19.77
2024-05-09T19:34:59.900Z,43.67
2024-05-09T19:37:28.752Z,48.65
2024-05-09T19:39:59.697Z,22.83
2024-05-09T19:42:29.943Z,26.48
2024-05-09T19:45:00.857Z,25.30
2024-05-09T19:47:29.226Z,23.48
2024-05-09T19:50:03.221Z,22.83
2024-05-09T19:52:31.827Z,20.55
2024-05-09T19:55:02.837Z,29.67
2024-05-09T19:57:30.990Z,29.00
2024-05-09T20:00:01.930Z,16.85
2024-05-09T20:02:37.596Z,14.98
2024-05-09T20:05:11.484Z,14.02
2024-05-09T20:07:39.670Z,18.58
2024-05-09T20:10:20.153Z,21.85
2024-05-09T20:12:51.628Z,11.65
2024-05-09T20:15:22.689Z,25.90
2024-05-09T20:17:50.858Z,31.65
2024-05-09T20:20:33.417Z,29.63
2024-05-09T20:23:06.618Z,35.10
2024-05-09T20:25:37.543Z,24.65
2024-05-09T20:28:06.786Z,29.48
2024-05-09T20:30:38.750Z,26.70
2024-05-09T20:33:08.400Z,27.90
2024-05-09T20:35:43.325Z,28.33
2024-05-09T20:38:11.283Z,23.48
2024-05-09T20:40:43.783Z,29.15
2024-05-09T20:43:12.017Z,26.73
2024-05-09T20:45:43.185Z,21.45
2024-05-09T20:48:11.529Z,22.15
2024-05-09T20:50:45.225Z,21.52
2024-05-09T20:53:14.888Z,16.17
2024-05-09T20:55:47.201Z,23.67
2024-05-09T20:58:15.528Z,25.98
2024-05-09T21:00:47.762Z,20.73
2024-05-09T21:03:17.321Z,19.52
2024-05-09T21:05:52.527Z,20.90
2024-05-09T21:08:20.501Z,17.95
2024-05-09T21:10:51.481Z,20.38
2024-05-09T21:13:19.857Z,27.70
2024-05-09T21:15:50.953Z,24.00
2024-05-09T21:18:19.058Z,24.65
2024-05-09T21:20:52.609Z,21.65
2024-05-09T21:23:20.528Z,20.00
2024-05-09T21:25:51.411Z,22.27
2024-05-09T21:28:19.620Z,26.20
2024-05-09T21:30:50.557Z,21.80
2024-05-09T21:33:19.225Z,20.00
2024-05-09T21:35:52.930Z,23.35
2024-05-09T21:38:20.843Z,20.73
2024-05-09T21:40:51.847Z,29.63
2024-05-09T21:43:19.986Z,24.88
2024-05-09T21:45:51.015Z,25.42
2024-05-09T21:48:19.000Z,28.52
2024-05-09T21:50:52.602Z,31.90
2024-05-09T21:53:20.606Z,28.35
2024-05-09T21:55:51.770Z,36.97
2024-05-09T21:58:19.878Z,27.05
2024-05-09T22:00:50.964Z,25.63
2024-05-09T22:03:19.136Z,35.58
2024-05-09T22:05:52.928Z,25.30
2024-05-09T22:08:20.954Z,31.55
2024-05-09T22:10:52.304Z,26.75
2024-05-09T22:13:20.684Z,24.83
2024-05-09T22:15:51.787Z,30.50
2024-05-09T22:18:19.917Z,31.33
2024-05-09T22:20:54.771Z,28.85
2024-05-09T22:23:22.772Z,26.13
2024-05-09T22:25:53.661Z,34.15
2024-05-09T22:28:21.697Z,28.83
2024-05-09T22:30:53.126Z,24.85
2024-05-09T22:33:21.210Z,29.83
2024-05-09T22:35:54.956Z,23.27
2024-05-09T22:38:22.990Z,24.08
2024-05-09T22:40:54.329Z,29.87
2024-05-09T22:43:24.468Z,22.67
2024-05-09T22:45:56.904Z,29.40
2024-05-09T22:48:25.724Z,25.43
2024-05-09T22:50:59.757Z,21.73
2024-05-09T22:53:27.778Z,22.93
2024-05-09T22:55:58.845Z,24.80
2024-05-09T22:58:26.770Z,24.00
2024-05-09T23:00:57.751Z,20.90
2024-05-09T23:03:26.101Z,24.07
2024-05-09T23:06:01.982Z,23.07
2024-05-09T23:08:29.947Z,28.20
2024-05-09T23:11:00.996Z,20.77
2024-05-09T23:13:29.058Z,20.53
2024-05-09T23:16:00.175Z,29.47
2024-05-09T23:18:28.169Z,31.97
2024-05-09T23:21:03.408Z,24.03
2024-05-09T23:23:31.319Z,30.17
2024-05-09T23:26:02.257Z,21.63
2024-05-09T23:28:31.731Z,20.20
2024-05-09T23:31:02.807Z,32.93
2024-05-09T23:33:30.892Z,28.63
2024-05-09T23:36:04.404Z,25.87
2024-05-09T23:38:34.963Z,27.53
2024-05-09T23:41:03.305Z,24.93
2024-05-09T23:43:34.385Z,24.07
2024-05-09T23:46:02.984Z,34.27
2024-05-09T23:48:33.680Z,31.83
2024-05-09T23:51:04.766Z,27.60
2024-05-09T23:53:35.283Z,29.90
2024-05-09T23:56:03.560Z,21.93
2024-05-09T23:58:34.365Z,28.03
